createdAt,value
2022-08-28T00:01:43.083Z,97938.00
2022-08-28T00:05:53.695Z,97934.00
2022-08-28T00:09:54.651Z,97935.00
2022-08-28T00:13:56.709Z,97941.00
2022-08-28T00:17:58.928Z,97935.00
2022-08-28T00:22:00.768Z,97938.00
2022-08-28T00:26:02.760Z,97934.00
2022-08-28T00:30:04.789Z,97936.00
2022-08-28T00:34:07.304Z,97943.00
2022-08-28T00:38:10.180Z,97944.00
2022-08-28T00:42:11.822Z,97941.00
2022-08-28T00:46:16.446Z,97958.00
2022-08-28T00:50:20.805Z,97942.00
2022-08-28T00:54:23.018Z,97942.00
2022-08-28T00:58:24.014Z,97942.00
2022-08-28T01:02:26.966Z,97934.00
2022-08-28T01:06:28.121Z,97934.00
2022-08-28T01:10:31.745Z,97939.00
2022-08-28T01:14:35.657Z,97941.00
2022-08-28T01:18:36.943Z,97952.00
2022-08-28T01:22:41.656Z,97939.00
2022-08-28T01:26:42.963Z,97935.00
2022-08-28T01:30:47.296Z,97937.00
2022-08-28T01:34:48.339Z,97936.00
2022-08-28T01:38:55.813Z,97940.00
2022-08-28T01:43:09.947Z,97939.00
2022-08-28T01:47:10.924Z,97940.00
2022-08-28T01:51:12.926Z,97939.00
2022-08-28T01:55:13.919Z,97944.00
2022-08-28T01:59:15.106Z,97947.00
2022-08-28T02:03:16.315Z,97945.00
2022-08-28T02:07:17.770Z,97949.00
2022-08-28T02:11:18.847Z,97949.00
2022-08-28T02:15:19.844Z,97957.00
2022-08-28T02:19:22.775Z,97954.00
2022-08-28T02:23:23.875Z,97969.00
2022-08-28T02:27:24.960Z,97960.00
2022-08-28T02:31:27.018Z,97955.00
2022-08-28T02:35:28.224Z,97959.00
2022-08-28T02:39:29.322Z,97961.00
2022-08-28T02:43:30.507Z,97960.00
2022-08-28T02:47:31.490Z,97966.00
2022-08-28T02:51:33.075Z,97970.00
2022-08-28T02:55:34.369Z,97950.00
2022-08-28T02:59:36.199Z,97958.00
2022-08-28T03:03:39.011Z,97954.00
2022-08-28T03:07:42.191Z,97962.00
2022-08-28T03:11:43.207Z,97959.00
2022-08-28T03:15:45.223Z,97954.00
2022-08-28T03:19:47.107Z,97962.00
2022-08-28T03:23:48.244Z,97955.00
2022-08-28T03:27:50.140Z,97962.00
2022-08-28T03:31:52.098Z,97956.00
2022-08-28T03:35:54.669Z,97960.00
2022-08-28T03:39:55.615Z,97962.00
2022-08-28T03:44:02.256Z,97969.00
2022-08-28T03:48:04.235Z,97976.00
2022-08-28T03:52:05.931Z,97969.00
2022-08-28T03:56:10.172Z,97973.00
2022-08-28T04:00:12.881Z,97970.00
2022-08-28T04:04:14.301Z,97973.00
2022-08-28T04:08:17.521Z,97970.00
2022-08-28T04:12:18.620Z,97968.00
2022-08-28T04:16:19.733Z,97970.00
2022-08-28T04:20:21.082Z,97969.00
2022-08-28T04:24:22.292Z,97981.00
2022-08-28T04:28:25.300Z,97976.00
2022-08-28T04:32:26.319Z,97979.00
2022-08-28T04:36:28.036Z,97985.00
2022-08-28T04:40:28.999Z,97990.00
2022-08-28T04:44:30.198Z,97989.00
2022-08-28T04:48:31.300Z,97992.00
2022-08-28T04:52:32.454Z,97993.00
2022-08-28T04:56:33.975Z,97988.00
2022-08-28T05:00:37.482Z,98007.00
2022-08-28T05:04:40.403Z,98002.00
2022-08-28T05:08:41.833Z,97996.00
2022-08-28T05:12:42.825Z,98004.00
2022-08-28T05:16:47.344Z,98008.00
2022-08-28T05:20:48.314Z,98007.00
2022-08-28T05:24:49.386Z,98012.00
2022-08-28T05:28:50.604Z,98023.00
2022-08-28T05:32:51.637Z,98027.00
2022-08-28T05:36:53.006Z,98031.00
2022-08-28T05:40:54.825Z,98045.00
2022-08-28T05:44:57.977Z,98043.00
2022-08-28T05:49:01.807Z,98038.00
2022-08-28T05:53:02.946Z,98052.00
2022-08-28T05:57:04.382Z,98052.00
2022-08-28T06:01:14.859Z,98048.00
2022-08-28T06:05:15.986Z,98048.00
2022-08-28T06:09:29.355Z,98055.00
2022-08-28T06:13:29.947Z,98048.00
2022-08-28T06:17:30.887Z,98051.00
2022-08-28T06:21:33.003Z,98051.00
2022-08-28T06:25:44.358Z,98055.00
2022-08-28T06:29:45.288Z,98058.00
2022-08-28T06:33:46.406Z,98059.00
2022-08-28T06:37:47.575Z,98051.00
2022-08-28T06:41:48.751Z,98051.00
2022-08-28T06:45:53.030Z,98053.00
2022-08-28T06:49:54.200Z,98059.00
2022-08-28T06:53:56.355Z,98059.00
2022-08-28T06:57:57.531Z,98061.00
2022-08-28T07:01:58.880Z,98062.00
2022-08-28T07:06:01.375Z,98065.00
2022-08-28T07:10:03.341Z,98063.00
2022-08-28T07:14:04.726Z,98071.00
2022-08-28T07:18:05.935Z,98074.00
2022-08-28T07:22:06.911Z,98076.00
2022-08-28T07:26:11.741Z,98084.00
2022-08-28T07:30:12.994Z,98082.00
2022-08-28T07:34:15.515Z,98081.00
2022-08-28T07:38:16.739Z,98087.00
2022-08-28T07:42:36.356Z,98078.00
2022-08-28T07:46:38.996Z,98085.00
2022-08-28T07:50:41.438Z,98082.00
2022-08-28T07:54:42.580Z,98083.00
2022-08-28T07:58:43.581Z,98069.00
2022-08-28T08:02:44.627Z,98091.00
2022-08-28T08:06:46.215Z,98089.00
2022-08-28T08:11:02.862Z,98098.00
2022-08-28T08:15:05.198Z,98097.00
2022-08-28T08:19:12.826Z,98107.00
2022-08-28T08:23:14.944Z,98097.00
2022-08-28T08:27:15.941Z,98107.00
2022-08-28T08:31:24.179Z,98111.00
2022-08-28T08:35:25.566Z,98108.00
2022-08-28T08:39:26.773Z,98105.00
2022-08-28T08:43:31.417Z,98103.00
2022-08-28T08:47:45.033Z,98105.00
2022-08-28T08:51:49.794Z,98108.00
2022-08-28T08:55:53.304Z,98103.00
2022-08-28T08:59:54.546Z,98104.00
2022-08-28T09:04:00.075Z,98104.00
2022-08-28T09:08:04.017Z,98113.00
2022-08-28T09:12:08.543Z,98107.00
2022-08-28T09:16:19.048Z,98108.00
2022-08-28T09:20:32.273Z,98112.00
2022-08-28T09:24:36.522Z,98117.00
2022-08-28T09:28:40.456Z,98116.00
2022-08-28T09:32:44.974Z,98124.00
2022-08-28T09:36:46.548Z,98119.00
2022-08-28T09:41:27.818Z,98123.00
2022-08-28T09:45:29.147Z,98123.00
2022-08-28T09:49:30.307Z,98125.00
2022-08-28T09:53:35.039Z,98122.00
2022-08-28T09:57:36.353Z,98131.00
2022-08-28T10:01:50.760Z,98130.00
2022-08-28T10:06:10.820Z,98130.00
2022-08-28T10:10:35.578Z,98133.00
2022-08-28T10:15:01.177Z,98134.00
2022-08-28T10:19:09.483Z,98117.00
2022-08-28T10:23:35.939Z,98124.00
2022-08-28T10:27:56.177Z,98127.00
2022-08-28T10:32:10.427Z,98128.00
2022-08-28T10:36:28.766Z,98127.00
2022-08-28T10:40:28.346Z,98120.00
2022-08-28T10:44:36.259Z,98119.00
2022-08-28T10:48:45.858Z,98127.00
2022-08-28T10:52:56.832Z,98122.00
2022-08-28T10:57:07.884Z,98120.00
2022-08-28T11:01:14.971Z,98118.00
2022-08-28T11:05:20.046Z,98107.00
2022-08-28T11:09:33.989Z,98112.00
2022-08-28T11:13:47.911Z,98107.00
2022-08-28T11:17:49.759Z,98110.00
2022-08-28T11:21:54.470Z,98114.00
2022-08-28T11:25:59.296Z,98121.00
2022-08-28T11:30:28.967Z,98123.00
2022-08-28T11:34:55.551Z,98121.00
2022-08-28T11:39:00.428Z,98121.00
2022-08-28T11:43:18.076Z,98115.00
2022-08-28T11:47:35.510Z,98111.00
2022-08-28T11:51:46.381Z,98121.00
2022-08-28T11:56:09.032Z,98112.00
2022-08-28T12:00:30.692Z,98116.00
2022-08-28T12:04:35.683Z,98112.00
2022-08-28T12:08:55.619Z,98113.00
2022-08-28T12:13:03.146Z,98102.00
2022-08-28T12:17:26.857Z,98115.00
2022-08-28T12:21:29.101Z,98112.00
2022-08-28T12:25:39.912Z,98110.00
2022-08-28T12:29:50.223Z,98127.00
2022-08-28T12:33:55.157Z,98111.00
2022-08-28T12:38:00.609Z,98112.00
2022-08-28T12:42:03.085Z,98116.00
2022-08-28T12:46:08.008Z,98105.00
2022-08-28T12:50:22.942Z,98110.00
2022-08-28T12:54:23.988Z,98121.00
2022-08-28T12:58:31.649Z,98103.00
2022-08-28T13:02:34.098Z,98116.00
2022-08-28T13:06:38.091Z,98111.00
2022-08-28T13:10:48.286Z,98117.00
2022-08-28T13:14:52.045Z,98104.00
2022-08-28T13:19:09.040Z,98098.00
2022-08-28T13:23:14.091Z,98090.00
2022-08-28T13:27:18.987Z,98100.00
2022-08-28T13:31:24.264Z,98092.00
2022-08-28T13:35:29.290Z,98087.00
2022-08-28T13:39:33.130Z,98085.00
2022-08-28T13:43:45.576Z,98088.00
2022-08-28T13:47:46.861Z,98069.00
2022-08-28T13:51:48.881Z,98071.00
2022-08-28T13:55:51.922Z,98070.00
2022-08-28T13:59:55.684Z,98075.00
2022-08-28T14:03:58.370Z,98071.00
2022-08-28T14:07:59.438Z,98067.00
2022-08-28T14:12:02.067Z,98072.00
2022-08-28T14:16:06.127Z,98065.00
2022-08-28T14:20:08.953Z,98073.00
2022-08-28T14:24:10.159Z,98066.00
2022-08-28T14:28:13.597Z,98070.00
2022-08-28T14:32:15.064Z,98064.00
2022-08-28T14:36:22.452Z,98065.00
2022-08-28T14:40:23.737Z,98061.00
2022-08-28T14:44:26.892Z,98067.00
2022-08-28T14:48:29.024Z,98057.00
2022-08-28T14:52:30.512Z,98059.00
2022-08-28T14:56:32.083Z,98065.00
2022-08-28T15:00:39.432Z,98067.00
2022-08-28T15:04:40.732Z,98066.00
2022-08-28T15:08:42.394Z,98059.00
2022-08-28T15:12:43.997Z,98058.00
2022-08-28T15:16:48.644Z,98074.00
2022-08-28T15:20:49.883Z,98064.00
2022-08-28T15:24:52.812Z,98056.00
2022-08-28T15:28:58.783Z,98052.00
2022-08-28T15:33:00.165Z,98056.00
2022-08-28T15:37:01.718Z,98057.00
2022-08-28T15:41:23.532Z,98057.00
2022-08-28T15:45:26.406Z,98057.00
2022-08-28T15:49:30.346Z,98050.00
2022-08-28T15:53:34.176Z,98047.00
2022-08-28T15:57:35.688Z,98048.00
2022-08-28T16:01:38.056Z,98044.00
2022-08-28T16:05:40.936Z,98046.00
2022-08-28T16:09:42.637Z,98044.00
2022-08-28T16:13:45.025Z,98047.00
2022-08-28T16:17:46.234Z,98045.00
2022-08-28T16:21:47.676Z,98052.00
2022-08-28T16:25:48.968Z,98060.00
2022-08-28T16:29:52.828Z,98050.00
2022-08-28T16:33:54.289Z,98056.00
2022-08-28T16:37:55.903Z,98054.00
2022-08-28T16:41:57.159Z,98052.00
2022-08-28T16:45:59.173Z,98056.00
2022-08-28T16:50:03.056Z,98053.00
2022-08-28T16:54:06.261Z,98067.00
2022-08-28T16:58:07.586Z,98065.00
2022-08-28T17:02:09.365Z,98062.00
2022-08-28T17:06:18.994Z,98061.00
2022-08-28T17:10:22.232Z,98043.00
2022-08-28T17:14:23.846Z,98055.00
2022-08-28T17:18:25.358Z,98062.00
2022-08-28T17:22:32.749Z,98069.00
2022-08-28T17:26:33.835Z,98060.00
2022-08-28T17:30:35.031Z,98062.00
2022-08-28T17:34:37.481Z,98064.00
2022-08-28T17:38:40.253Z,98063.00
2022-08-28T17:42:42.613Z,98067.00
2022-08-28T17:46:44.478Z,98070.00
2022-08-28T17:50:45.734Z,98070.00
2022-08-28T17:54:47.157Z,98076.00
2022-08-28T17:58:48.871Z,98074.00
2022-08-28T18:02:51.729Z,98077.00
2022-08-28T18:06:53.622Z,98081.00
2022-08-28T18:10:54.969Z,98090.00
2022-08-28T18:14:58.228Z,98094.00
2022-08-28T18:19:00.440Z,98098.00
2022-08-28T18:23:02.025Z,98101.00
2022-08-28T18:27:04.708Z,98099.00
2022-08-28T18:31:06.699Z,98099.00
2022-08-28T18:35:08.083Z,98104.00
2022-08-28T18:39:09.457Z,98111.00
2022-08-28T18:43:11.929Z,98118.00
2022-08-28T18:47:13.770Z,98124.00
2022-08-28T18:51:15.017Z,98130.00
2022-08-28T18:55:19.352Z,98131.00
2022-08-28T18:59:21.102Z,98140.00
2022-08-28T19:03:22.524Z,98145.00
2022-08-28T19:07:23.641Z,98159.00
2022-08-28T19:11:25.138Z,98172.00
2022-08-28T19:15:26.500Z,98176.00
2022-08-28T19:19:28.201Z,98175.00
2022-08-28T19:23:29.319Z,98182.00
2022-08-28T19:27:30.507Z,98179.00
2022-08-28T19:31:31.585Z,98182.00
2022-08-28T19:35:33.400Z,98189.00
2022-08-28T19:39:34.619Z,98188.00
2022-08-28T19:43:42.627Z,98196.00
2022-08-28T19:47:39.719Z,98197.00
2022-08-28T19:51:41.844Z,98212.00
2022-08-28T19:55:43.137Z,98216.00
2022-08-28T19:59:44.983Z,98224.00
2022-08-28T20:03:47.148Z,98221.00
2022-08-28T20:07:48.365Z,98219.00
2022-08-28T20:11:50.289Z,98229.00
2022-08-28T20:15:54.479Z,98234.00
2022-08-28T20:20:02.381Z,98228.00
2022-08-28T20:24:01.554Z,98229.00
2022-08-28T20:28:04.145Z,98234.00
2022-08-28T20:32:05.397Z,98237.00
2022-08-28T20:36:07.785Z,98237.00
2022-08-28T20:40:11.684Z,98226.00
2022-08-28T20:44:15.625Z,98245.00
2022-08-28T20:48:16.733Z,98243.00
2022-08-28T20:52:17.808Z,98246.00
2022-08-28T20:56:19.147Z,98241.00
2022-08-28T21:00:20.654Z,98236.00
2022-08-28T21:04:22.964Z,98244.00
2022-08-28T21:08:24.161Z,98248.00
2022-08-28T21:12:25.526Z,98249.00
2022-08-28T21:16:26.707Z,98245.00
2022-08-28T21:20:28.554Z,98257.00
2022-08-28T21:24:31.131Z,98265.00
2022-08-28T21:28:32.455Z,98267.00
2022-08-28T21:32:34.964Z,98279.00
2022-08-28T21:36:37.776Z,98269.00
2022-08-28T21:40:42.003Z,98264.00
2022-08-28T21:44:51.554Z,98270.00
2022-08-28T21:48:55.373Z,98280.00
2022-08-28T21:52:56.521Z,98274.00
2022-08-28T21:56:58.658Z,98289.00
2022-08-28T22:01:00.484Z,98281.00
2022-08-28T22:05:02.064Z,98281.00
2022-08-28T22:09:04.328Z,98283.00
2022-08-28T22:13:06.666Z,98285.00
2022-08-28T22:17:12.099Z,98289.00
2022-08-28T22:21:33.106Z,98286.00
2022-08-28T22:25:40.807Z,98289.00
2022-08-28T22:29:37.225Z,98295.00
2022-08-28T22:33:38.429Z,98295.00
2022-08-28T22:37:39.525Z,98301.00
2022-08-28T22:41:41.334Z,98303.00
2022-08-28T22:45:43.497Z,98303.00
2022-08-28T22:49:44.469Z,98299.00
2022-08-28T22:53:46.490Z,98191.00
2022-08-28T22:57:47.879Z,98299.00
2022-08-28T23:01:48.982Z,98293.00
2022-08-28T23:05:50.909Z,98310.00
2022-08-28T23:09:51.945Z,98301.00
2022-08-28T23:13:53.349Z,98313.00
2022-08-28T23:17:54.374Z,98308.00
2022-08-28T23:21:55.375Z,98306.00
2022-08-28T23:25:56.377Z,98305.00
2022-08-28T23:30:00.682Z,98297.00
2022-08-28T23:34:02.126Z,98301.00
2022-08-28T23:38:04.038Z,98309.00
2022-08-28T23:42:06.823Z,98292.00
2022-08-28T23:46:08.883Z,98290.00
2022-08-28T23:50:15.618Z,98295.00
2022-08-28T23:54:19.587Z,97755.00
2022-08-28T23:58:22.521Z,98281.00
